Aérodrome :
LOGIN :

S'inscrire | Disclaimer

   EN    FR    IT 

 










Légende :    VFR   VFR Marginal   IFR   IFR Intensif   IFR Très Intensif
Visi : 
Plafond : 
>= 8 km
>= 3000ft
5 à 8 km
1000 à 3000 ft
1500m à 5 km
500 à 1000 ft
800 à 1500m
200 à 500 ft
< 800m
< 200 ft
Symboles :   Orages  Brouillard  Fortes neiges  Fortes précipitations  Vent > 20 kt
SIGMETs :   Divers  Orages  Givrage  Turbulence  Onde Orograph.  Cendres Volcan.






- Altitude de l'aérodrome : 117 ft
- Code IATA : NWI


EGSH - Norwich

DERNIER METAR :
  • 010550Z 24003KT 9999 BKN045 01/00 Q1025

METARs EXPIRÉS :
  • 010520Z AUTO VRB03KT 9999 OVC045/// 01/M00 Q1025
  • 010450Z AUTO 26003KT 9999 OVC044/// 01/M00 Q1025
  • 010420Z AUTO VRB02KT 9999 OVC043/// 01/M00 Q1026
  • 010350Z AUTO 24003KT 9999 OVC042/// M00/M02 Q1026
  • 010320Z AUTO VRB03KT 9999 BKN043/// 00/M01 Q1026
  • 010250Z AUTO 29003KT 9999 SCT042/// 00/M01 Q1027

TAF TAF EGSH
Valide du 01 à 00h jusqu'au 01 à 09h UTC


312301Z 0100/0109 33005KT 9999 FEW040
ATIS : +44 1603 420 640



MET'MAP, la Météo Aéronautique d'un coup d'oeil ! - Copyright ORBIFLY Décembre 2007 - Disclaimer

ORBIFLY MET'MAP TEAM :

Programmation & Développement : Alexandra Zaïnal
Sur une idée originale de : Baudouin d'Aumeries
Assistance à la programmation : Marc-Olivier Méhu
Soutien technique & logistique : Manuel Goepfert

Contact : metmap@orbifly.com




SOURCES & CREDITS :

   NOAA